Terminal Aerodrome Forecast
Issued by NWS Pocatello, ID

Home | Current Version | Previous Version | Text Only | Print | Product List | Glossary On
Versions: 1 2 3 4 5 6 7 8 9 10 11 12 13 14 15 16 17 18 19 20 21
527
FTUS45 KPIH 120520
TAFIDA
TAF
KIDA 120520Z 1206/1306 36008KT P6SM VCSH SCT060 BKN080 OVC110
     FM121300 VRB04KT 6SM BR BKN008 BKN080 OVC120
     FM121700 VRB04KT P6SM FEW008 FEW080 BKN120
     FM130300 VRB04KT 6SM BR SCT004 SCT180=

USA.gov is the U.S. government's official web portal to all federal, state and local government web resources and services.